createdAt,value
2023-04-08T00:01:50.516Z,16.47
2023-04-08T00:04:17.254Z,15.47
2023-04-08T00:06:43.858Z,15.13
2023-04-08T00:09:10.463Z,15.03
2023-04-08T00:11:37.975Z,15.33
2023-04-08T00:14:04.748Z,15.20
2023-04-08T00:16:31.358Z,14.60
2023-04-08T00:18:57.905Z,14.87
2023-04-08T00:21:24.539Z,15.23
2023-04-08T00:23:51.133Z,16.13
2023-04-08T00:26:17.639Z,14.77
2023-04-08T00:28:45.157Z,15.13
2023-04-08T00:31:11.846Z,16.27
2023-04-08T00:33:38.429Z,15.67
2023-04-08T00:36:05.064Z,15.07
2023-04-08T00:38:31.597Z,15.57
2023-04-08T00:40:58.634Z,14.87
2023-04-08T00:43:25.288Z,14.73
2023-04-08T00:45:51.904Z,13.63
2023-04-08T00:48:18.673Z,13.07
2023-04-08T00:50:47.148Z,14.63
2023-04-08T00:53:18.495Z,14.03
2023-04-08T00:55:45.472Z,12.50
2023-04-08T00:58:12.650Z,13.20
2023-04-08T01:00:43.111Z,13.40
2023-04-08T01:03:26.378Z,12.97
2023-04-08T01:06:00.221Z,12.47
2023-04-08T01:08:28.040Z,13.80
2023-04-08T01:10:57.065Z,12.43
2023-04-08T01:13:24.460Z,11.70
2023-04-08T01:15:51.116Z,12.60
2023-04-08T01:18:18.596Z,14.07
2023-04-08T01:20:45.617Z,13.37
2023-04-08T01:23:18.016Z,14.00
2023-04-08T01:25:54.181Z,13.60
2023-04-08T01:28:21.722Z,13.10
2023-04-08T01:30:49.274Z,14.03
2023-04-08T01:33:16.925Z,13.80
2023-04-08T01:35:44.592Z,14.60
2023-04-08T01:38:14.116Z,13.70
2023-04-08T01:40:41.104Z,13.83
2023-04-08T01:43:08.903Z,13.27
2023-04-08T01:45:38.732Z,14.27
2023-04-08T01:48:05.613Z,15.23
2023-04-08T01:50:32.458Z,14.23
2023-04-08T01:53:00.478Z,14.67
2023-04-08T01:55:27.899Z,15.20
2023-04-08T01:57:56.210Z,13.67
2023-04-08T02:00:26.669Z,14.23
2023-04-08T02:02:53.515Z,13.80
2023-04-08T02:05:20.422Z,15.33
2023-04-08T02:07:50.386Z,14.40
2023-04-08T02:10:16.906Z,14.03
2023-04-08T02:12:44.347Z,15.10
2023-04-08T02:15:12.303Z,15.17
2023-04-08T02:17:42.013Z,15.47
2023-04-08T02:20:10.984Z,14.50
2023-04-08T02:22:47.545Z,15.73
2023-04-08T02:25:15.665Z,16.47
2023-04-08T02:27:42.996Z,17.03
2023-04-08T02:30:11.206Z,16.37
2023-04-08T02:32:38.059Z,16.80
2023-04-08T02:35:05.619Z,17.97
2023-04-08T02:37:32.497Z,17.20
2023-04-08T02:39:59.450Z,15.73
2023-04-08T02:42:26.249Z,17.40
2023-04-08T02:44:53.019Z,17.47
2023-04-08T02:47:19.535Z,18.90
2023-04-08T02:49:46.378Z,17.67
2023-04-08T02:52:12.974Z,17.23
2023-04-08T02:54:39.569Z,17.53
2023-04-08T02:57:06.148Z,17.03
2023-04-08T02:59:32.701Z,17.07
2023-04-08T03:01:59.289Z,17.37
2023-04-08T03:04:25.981Z,17.23
2023-04-08T03:06:52.513Z,16.60
2023-04-08T03:09:19.012Z,20.60
2023-04-08T03:11:45.643Z,20.23
2023-04-08T03:14:12.131Z,19.27
2023-04-08T03:16:38.805Z,18.67
2023-04-08T03:19:05.476Z,18.17
2023-04-08T03:21:32.446Z,20.27
2023-04-08T03:23:58.981Z,20.97
2023-04-08T03:26:27.180Z,21.23
2023-04-08T03:28:53.785Z,20.47
2023-04-08T03:31:21.386Z,20.97
2023-04-08T03:33:48.032Z,22.10
2023-04-08T03:36:14.555Z,23.20
2023-04-08T03:38:41.082Z,22.00
2023-04-08T03:41:07.642Z,20.47
2023-04-08T03:43:36.172Z,24.73
2023-04-08T03:46:04.115Z,24.20
2023-04-08T03:48:31.205Z,25.87
2023-04-08T03:50:57.809Z,26.03
2023-04-08T03:53:24.453Z,25.13
2023-04-08T03:55:51.188Z,26.17
2023-04-08T03:58:17.670Z,24.73
2023-04-08T04:00:44.190Z,26.00
2023-04-08T04:03:13.137Z,24.93
2023-04-08T04:05:40.317Z,26.27
2023-04-08T04:08:07.336Z,25.03
2023-04-08T04:10:33.893Z,26.87
2023-04-08T04:13:00.476Z,28.53
2023-04-08T04:15:27.207Z,26.87
2023-04-08T04:17:53.811Z,28.87
2023-04-08T04:20:21.762Z,26.87
2023-04-08T04:22:48.335Z,26.23
2023-04-08T04:25:14.904Z,27.77
2023-04-08T04:27:41.418Z,26.17
2023-04-08T04:30:09.470Z,28.20
2023-04-08T04:32:36.054Z,25.87
2023-04-08T04:35:02.726Z,27.10
2023-04-08T04:37:29.221Z,26.37
2023-04-08T04:39:56.018Z,26.53
2023-04-08T04:42:22.640Z,26.10
2023-04-08T04:44:49.315Z,26.20
2023-04-08T04:47:16.476Z,27.13
2023-04-08T04:49:43.092Z,27.97
2023-04-08T04:52:09.705Z,27.27
2023-04-08T04:54:36.344Z,26.93
2023-04-08T04:57:02.840Z,28.77
2023-04-08T04:59:29.401Z,26.77
2023-04-08T05:01:57.859Z,26.07
2023-04-08T05:04:24.771Z,26.00
2023-04-08T05:06:51.324Z,27.30
2023-04-08T05:09:17.918Z,28.90
2023-04-08T05:11:44.498Z,28.70
2023-04-08T05:14:11.181Z,27.27
2023-04-08T05:16:38.828Z,28.07
2023-04-08T05:19:05.403Z,27.43
2023-04-08T05:21:32.694Z,27.70
2023-04-08T05:23:59.398Z,27.67
2023-04-08T05:26:26.371Z,27.97
2023-04-08T05:28:53.035Z,24.67
2023-04-08T05:31:20.094Z,27.33
2023-04-08T05:33:46.995Z,27.40
2023-04-08T05:36:13.884Z,25.77
2023-04-08T05:38:40.980Z,27.37
2023-04-08T05:41:07.476Z,26.43
2023-04-08T05:43:34.306Z,25.47
2023-04-08T05:46:00.896Z,26.07
2023-04-08T05:48:27.439Z,24.43
2023-04-08T05:50:53.950Z,24.43
2023-04-08T05:53:20.440Z,25.30
2023-04-08T05:55:47.028Z,25.07
2023-04-08T05:58:13.544Z,23.93
2023-04-08T06:00:40.056Z,24.10
2023-04-08T06:03:07.072Z,25.17
2023-04-08T06:05:33.715Z,24.73
2023-04-08T06:08:00.598Z,25.30
2023-04-08T06:10:27.098Z,25.53
2023-04-08T06:12:53.658Z,26.03
2023-04-08T06:15:21.192Z,24.67
2023-04-08T06:17:47.798Z,25.23
2023-04-08T06:20:14.307Z,25.03
2023-04-08T06:22:40.833Z,25.97
2023-04-08T06:25:07.524Z,24.93
2023-04-08T06:27:34.031Z,24.37
2023-04-08T06:30:00.836Z,24.97
2023-04-08T06:32:27.369Z,22.83
2023-04-08T06:34:53.953Z,22.80
2023-04-08T06:37:20.884Z,23.13
2023-04-08T06:39:47.381Z,22.87
2023-04-08T06:42:13.927Z,23.10
2023-04-08T06:44:54.603Z,22.77
2023-04-08T06:47:21.211Z,23.20
2023-04-08T06:49:48.324Z,21.90
2023-04-08T06:52:15.278Z,22.03
2023-04-08T06:54:41.902Z,22.23
2023-04-08T06:57:08.401Z,22.43
2023-04-08T06:59:35.320Z,21.20
2023-04-08T07:02:01.946Z,22.87
2023-04-08T07:04:28.512Z,22.37
2023-04-08T07:06:55.082Z,21.17
2023-04-08T07:09:21.627Z,20.70
2023-04-08T07:11:48.375Z,20.73
2023-04-08T07:14:14.849Z,20.83
2023-04-08T07:16:41.421Z,20.87
2023-04-08T07:19:08.165Z,20.70
2023-04-08T07:21:34.679Z,20.87
2023-04-08T07:24:01.241Z,19.90
2023-04-08T07:26:28.699Z,20.00
2023-04-08T07:28:55.335Z,20.00
2023-04-08T07:31:21.869Z,22.93
2023-04-08T07:33:48.455Z,23.27
2023-04-08T07:36:15.396Z,25.20
2023-04-08T07:38:42.097Z,24.30
2023-04-08T07:41:08.640Z,23.93
2023-04-08T07:43:37.162Z,23.97
2023-04-08T07:46:04.756Z,23.47
2023-04-08T07:48:31.878Z,23.27
2023-04-08T07:51:08.960Z,21.83
2023-04-08T07:53:37.959Z,20.87
2023-04-08T07:56:11.122Z,19.97
2023-04-08T07:58:37.774Z,23.35
2023-04-08T08:01:04.380Z,20.33
2023-04-08T08:03:33.750Z,19.97
2023-04-08T08:06:00.766Z,19.17
2023-04-08T08:08:27.272Z,18.47
2023-04-08T08:10:53.806Z,18.70
2023-04-08T08:13:22.190Z,19.43
2023-04-08T08:15:52.589Z,21.63
2023-04-08T08:18:19.452Z,20.67
2023-04-08T08:20:46.119Z,19.87
2023-04-08T08:23:12.627Z,19.57
2023-04-08T08:25:40.325Z,19.27
2023-04-08T08:28:07.074Z,19.00
2023-04-08T08:30:34.184Z,19.00
2023-04-08T08:33:01.093Z,18.60
2023-04-08T08:35:27.691Z,19.97
2023-04-08T08:37:54.199Z,19.10
2023-04-08T08:40:20.724Z,20.23
2023-04-08T08:42:51.630Z,27.37
2023-04-08T08:45:19.487Z,20.90
2023-04-08T08:47:46.241Z,19.90
2023-04-08T08:50:12.849Z,24.90
2023-04-08T08:52:39.343Z,20.43
2023-04-08T08:55:21.822Z,19.10
2023-04-08T08:57:52.625Z,23.00
2023-04-08T09:00:19.196Z,23.73
2023-04-08T09:02:45.864Z,17.87
2023-04-08T09:05:12.655Z,16.73
2023-04-08T09:07:42.357Z,15.93
2023-04-08T09:10:09.188Z,14.90
2023-04-08T09:12:35.957Z,15.23
2023-04-08T09:15:05.510Z,14.60
2023-04-08T09:17:36.076Z,15.17
2023-04-08T09:20:12.699Z,12.43
2023-04-08T09:22:58.053Z,11.63
2023-04-08T09:25:25.423Z,10.63
2023-04-08T09:27:53.088Z,12.70
2023-04-08T09:30:20.510Z,14.37
2023-04-08T09:32:47.972Z,10.57
2023-04-08T09:35:16.655Z,9.23
2023-04-08T09:37:43.383Z,10.27
2023-04-08T09:40:10.503Z,10.17
2023-04-08T09:42:40.059Z,9.50
2023-04-08T09:45:10.037Z,12.10
2023-04-08T09:47:42.750Z,9.83
2023-04-08T09:50:09.691Z,19.90
2023-04-08T09:52:47.026Z,9.87
2023-04-08T09:55:14.319Z,12.03
2023-04-08T09:57:52.850Z,10.43
2023-04-08T10:00:19.823Z,11.30
2023-04-08T10:02:52.558Z,10.33
2023-04-08T10:05:19.372Z,11.27
2023-04-08T10:07:45.926Z,11.33
2023-04-08T10:10:12.618Z,14.10
2023-04-08T10:12:39.594Z,10.67
2023-04-08T10:15:32.238Z,9.10
2023-04-08T10:18:01.536Z,9.60
2023-04-08T10:20:34.119Z,9.17
2023-04-08T10:23:01.423Z,10.13
2023-04-08T10:25:29.407Z,10.93
2023-04-08T10:27:56.050Z,10.10
2023-04-08T10:30:28.651Z,10.50
2023-04-08T10:32:56.813Z,10.07
2023-04-08T10:35:30.397Z,10.33
2023-04-08T10:38:00.353Z,10.83
2023-04-08T10:40:27.001Z,10.37
2023-04-08T10:42:57.101Z,15.53
2023-04-08T10:45:24.028Z,11.73
2023-04-08T10:47:50.933Z,9.73
2023-04-08T10:50:18.623Z,9.67
2023-04-08T10:52:48.515Z,10.30
2023-04-08T10:55:15.107Z,10.47
2023-04-08T10:57:41.677Z,10.73
2023-04-08T11:00:11.673Z,11.50
2023-04-08T11:02:38.504Z,12.17
2023-04-08T11:05:05.262Z,11.93
2023-04-08T11:07:31.844Z,12.37
2023-04-08T11:10:02.680Z,12.80
2023-04-08T11:12:29.941Z,12.20
2023-04-08T11:14:57.482Z,13.17
2023-04-08T11:17:24.155Z,13.00
2023-04-08T11:19:50.776Z,13.17
2023-04-08T11:22:17.304Z,13.37
2023-04-08T11:24:45.200Z,15.27
2023-04-08T11:27:11.807Z,15.47
2023-04-08T11:29:38.427Z,17.60
2023-04-08T11:32:05.008Z,16.10
2023-04-08T11:34:31.891Z,15.50
2023-04-08T11:36:59.148Z,13.83
2023-04-08T11:39:26.473Z,14.83
2023-04-08T11:41:53.332Z,14.27
2023-04-08T11:44:19.858Z,15.77
2023-04-08T11:46:55.389Z,15.43
2023-04-08T11:49:22.103Z,16.17
2023-04-08T11:51:56.343Z,16.43
2023-04-08T11:54:27.121Z,16.37
2023-04-08T11:56:53.771Z,15.47
2023-04-08T11:59:20.335Z,16.77
2023-04-08T12:01:46.937Z,16.93
2023-04-08T12:04:13.779Z,15.07
2023-04-08T12:06:43.524Z,15.13
2023-04-08T12:09:10.082Z,15.77
2023-04-08T12:11:36.751Z,18.97
2023-04-08T12:14:03.301Z,16.50
2023-04-08T12:16:29.864Z,15.63
2023-04-08T12:18:56.477Z,15.60
2023-04-08T12:21:23.063Z,15.30
2023-04-08T12:23:49.716Z,16.13
2023-04-08T12:26:16.451Z,16.97
2023-04-08T12:28:42.969Z,16.90
2023-04-08T12:31:09.517Z,16.50
2023-04-08T12:33:36.244Z,17.40
2023-04-08T12:36:02.836Z,17.10
2023-04-08T12:38:29.439Z,16.63
2023-04-08T12:40:56.097Z,17.03
2023-04-08T12:43:23.701Z,17.67
2023-04-08T12:45:50.548Z,16.40
2023-04-08T12:48:17.061Z,16.33
2023-04-08T12:50:43.831Z,16.07
2023-04-08T12:53:10.709Z,16.10
2023-04-08T12:55:37.322Z,15.33
2023-04-08T12:58:03.930Z,15.73
2023-04-08T13:00:30.585Z,16.27
2023-04-08T13:02:57.247Z,15.00
2023-04-08T13:05:39.628Z,18.77
2023-04-08T13:08:09.672Z,15.30
2023-04-08T13:10:36.228Z,14.30
2023-04-08T13:13:02.805Z,15.13
2023-04-08T13:15:29.324Z,15.40
2023-04-08T13:17:56.117Z,14.80
2023-04-08T13:20:25.782Z,16.97
2023-04-08T13:22:55.681Z,17.30
2023-04-08T13:25:22.273Z,19.20
2023-04-08T13:27:48.845Z,18.30
2023-04-08T13:30:15.554Z,18.27
2023-04-08T13:32:42.142Z,19.63
2023-04-08T13:35:08.813Z,20.20
2023-04-08T13:37:35.879Z,18.93
2023-04-08T13:40:02.645Z,20.17
2023-04-08T13:42:31.468Z,18.73
2023-04-08T13:44:57.996Z,17.00
2023-04-08T13:47:24.521Z,18.30
2023-04-08T13:49:51.793Z,18.23
2023-04-08T13:52:18.370Z,18.43
2023-04-08T13:54:44.915Z,19.53
2023-04-08T13:57:11.563Z,18.07
2023-04-08T13:59:38.167Z,18.80
2023-04-08T14:02:05.184Z,17.20
2023-04-08T14:04:31.857Z,20.50
2023-04-08T14:06:58.380Z,17.73
2023-04-08T14:09:25.064Z,18.03
2023-04-08T14:11:51.557Z,17.60
2023-04-08T14:14:18.094Z,16.07
2023-04-08T14:16:45.048Z,17.40
2023-04-08T14:19:11.630Z,18.17
2023-04-08T14:21:38.210Z,16.57
2023-04-08T14:24:05.269Z,16.33
2023-04-08T14:26:35.753Z,16.50
2023-04-08T14:29:06.026Z,16.90
2023-04-08T14:31:33.119Z,16.73
2023-04-08T14:34:00.593Z,16.13
2023-04-08T14:36:28.038Z,15.17
2023-04-08T14:38:54.986Z,15.47
2023-04-08T14:41:21.874Z,15.57
2023-04-08T14:43:48.709Z,16.77
2023-04-08T14:46:15.581Z,16.50
2023-04-08T14:48:42.152Z,16.10
2023-04-08T14:51:08.704Z,15.37
2023-04-08T14:53:35.386Z,15.50
2023-04-08T14:56:01.996Z,17.40
2023-04-08T14:58:28.511Z,15.93
2023-04-08T15:00:55.732Z,21.53
2023-04-08T15:03:22.785Z,16.67
2023-04-08T15:05:58.788Z,16.13
2023-04-08T15:08:25.600Z,17.40
2023-04-08T15:10:52.165Z,15.97
2023-04-08T15:13:18.735Z,17.57
2023-04-08T15:15:45.496Z,17.63
2023-04-08T15:18:12.124Z,15.83
2023-04-08T15:20:38.776Z,14.30
2023-04-08T15:23:06.076Z,14.80
2023-04-08T15:25:33.024Z,13.90
2023-04-08T15:27:59.545Z,13.87
2023-04-08T15:30:26.451Z,25.33
2023-04-08T15:32:53.625Z,16.63
2023-04-08T15:35:21.063Z,17.50
2023-04-08T15:37:47.541Z,16.53
2023-04-08T15:40:14.089Z,14.63
2023-04-08T15:42:40.580Z,14.17
2023-04-08T15:45:07.922Z,16.33
2023-04-08T15:47:35.274Z,14.80
2023-04-08T15:50:01.917Z,15.83
2023-04-08T15:52:28.504Z,17.87
2023-04-08T15:54:55.050Z,18.63
2023-04-08T15:57:26.711Z,16.80
2023-04-08T15:59:53.607Z,16.80
2023-04-08T16:02:20.535Z,13.57
2023-04-08T16:04:47.246Z,13.87
2023-04-08T16:07:13.816Z,14.90
2023-04-08T16:09:40.297Z,14.23
2023-04-08T16:12:06.832Z,14.60
2023-04-08T16:14:33.997Z,14.30
2023-04-08T16:17:00.575Z,13.87
2023-04-08T16:19:27.342Z,13.87
2023-04-08T16:21:53.875Z,15.17
2023-04-08T16:24:20.827Z,16.10
2023-04-08T16:26:47.426Z,15.30
2023-04-08T16:29:14.183Z,14.50
2023-04-08T16:31:40.984Z,13.97
2023-04-08T16:34:08.303Z,13.47
2023-04-08T16:36:35.763Z,18.47
2023-04-08T16:39:02.345Z,17.33
2023-04-08T16:41:28.895Z,21.40
2023-04-08T16:43:55.500Z,16.37
2023-04-08T16:46:22.239Z,14.80
2023-04-08T16:48:48.765Z,13.70
2023-04-08T16:51:15.457Z,13.83
2023-04-08T16:53:42.587Z,14.40
2023-04-08T16:56:16.177Z,14.00
2023-04-08T16:58:43.071Z,16.33
2023-04-08T17:01:10.577Z,15.20
2023-04-08T17:03:37.887Z,14.70
2023-04-08T17:06:14.542Z,14.63
2023-04-08T17:08:44.292Z,13.70
2023-04-08T17:11:11.804Z,13.77
2023-04-08T17:13:39.161Z,14.53
2023-04-08T17:16:06.559Z,26.60
2023-04-08T17:18:33.217Z,22.10
2023-04-08T17:20:59.790Z,17.53
2023-04-08T17:23:27.091Z,16.40
2023-04-08T17:25:54.131Z,14.73
2023-04-08T17:28:21.318Z,14.37
2023-04-08T17:30:47.794Z,14.97
2023-04-08T17:33:14.802Z,14.77
2023-04-08T17:35:41.308Z,15.47
2023-04-08T17:38:08.069Z,14.87
2023-04-08T17:40:34.650Z,16.53
2023-04-08T17:43:01.742Z,15.93
2023-04-08T17:45:28.239Z,16.37
2023-04-08T17:47:54.915Z,15.73
2023-04-08T17:50:21.584Z,16.43
2023-04-08T17:52:48.087Z,20.50
2023-04-08T17:55:14.887Z,21.13
2023-04-08T17:57:41.891Z,16.53
2023-04-08T18:00:08.619Z,15.50
2023-04-08T18:02:36.937Z,14.30
2023-04-08T18:05:04.177Z,16.50
2023-04-08T18:07:30.791Z,18.03
2023-04-08T18:09:57.299Z,16.83
2023-04-08T18:12:23.893Z,17.83
2023-04-08T18:14:50.498Z,16.03
2023-04-08T18:17:17.154Z,15.97
2023-04-08T18:19:43.656Z,16.37
2023-04-08T18:22:10.173Z,15.83
2023-04-08T18:24:37.309Z,16.03
2023-04-08T18:27:05.116Z,16.20
2023-04-08T18:29:31.735Z,15.57
2023-04-08T18:31:58.368Z,14.73
2023-04-08T18:34:25.357Z,14.60
2023-04-08T18:36:52.075Z,14.63
2023-04-08T18:39:18.866Z,14.37
2023-04-08T18:41:45.876Z,14.70
2023-04-08T18:44:12.915Z,16.47
2023-04-08T18:46:39.474Z,22.67
2023-04-08T18:49:06.204Z,30.80
2023-04-08T18:51:33.470Z,37.23
2023-04-08T18:54:00.048Z,32.27
2023-04-08T18:56:26.714Z,26.60
2023-04-08T18:58:54.678Z,29.13
2023-04-08T19:01:21.583Z,30.47
2023-04-08T19:03:48.277Z,29.53
2023-04-08T19:06:17.324Z,28.27
2023-04-08T19:08:43.831Z,27.50
2023-04-08T19:11:10.366Z,23.57
2023-04-08T19:13:37.056Z,21.47
2023-04-08T19:16:03.689Z,22.33
2023-04-08T19:18:30.469Z,20.70
2023-04-08T19:20:57.055Z,26.70
2023-04-08T19:23:23.532Z,25.40
2023-04-08T19:25:50.378Z,21.83
2023-04-08T19:28:16.853Z,20.47
2023-04-08T19:30:43.428Z,18.17
2023-04-08T19:33:10.096Z,16.17
2023-04-08T19:35:36.921Z,15.87
2023-04-08T19:38:03.821Z,15.50
2023-04-08T19:40:30.633Z,15.20
2023-04-08T19:42:57.193Z,15.17
2023-04-08T19:45:23.703Z,15.23
2023-04-08T19:47:50.314Z,17.40
2023-04-08T19:50:16.879Z,19.80
2023-04-08T19:52:43.401Z,16.43
2023-04-08T19:55:12.719Z,16.13
2023-04-08T19:57:39.354Z,16.47
2023-04-08T20:00:06.153Z,15.70
2023-04-08T20:02:33.202Z,16.70
2023-04-08T20:04:59.867Z,16.63
2023-04-08T20:07:26.396Z,17.20
2023-04-08T20:09:52.916Z,16.60
2023-04-08T20:12:19.457Z,16.27
2023-04-08T20:14:47.223Z,15.40
2023-04-08T20:17:15.413Z,17.87
2023-04-08T20:19:42.045Z,15.90
2023-04-08T20:22:08.563Z,15.90
2023-04-08T20:24:35.084Z,16.27
2023-04-08T20:27:01.631Z,16.63
2023-04-08T20:29:28.633Z,16.80
2023-04-08T20:31:55.241Z,16.80
2023-04-08T20:34:21.820Z,16.23
2023-04-08T20:36:48.420Z,16.27
2023-04-08T20:39:14.898Z,17.57
2023-04-08T20:41:42.445Z,16.30
2023-04-08T20:44:10.613Z,18.73
2023-04-08T20:46:37.850Z,20.03
2023-04-08T20:49:05.074Z,20.60
2023-04-08T20:51:33.722Z,21.10
2023-04-08T20:54:00.405Z,22.77
2023-04-08T20:56:27.313Z,24.77
2023-04-08T20:58:54.270Z,23.80
2023-04-08T21:01:21.947Z,23.10
2023-04-08T21:03:49.164Z,24.53
2023-04-08T21:06:22.069Z,24.53
2023-04-08T21:08:49.437Z,23.60
2023-04-08T21:11:16.416Z,21.77
2023-04-08T21:13:43.194Z,22.93
2023-04-08T21:16:09.805Z,20.73
2023-04-08T21:18:38.943Z,22.73
2023-04-08T21:21:05.501Z,22.43
2023-04-08T21:23:32.171Z,22.70
2023-04-08T21:25:58.665Z,24.30
2023-04-08T21:28:25.266Z,25.87
2023-04-08T21:30:52.025Z,27.73
2023-04-08T21:33:18.808Z,30.50
2023-04-08T21:35:45.477Z,31.60
2023-04-08T21:38:12.691Z,31.30
2023-04-08T21:40:39.234Z,28.53
2023-04-08T21:43:05.765Z,27.40
2023-04-08T21:45:32.575Z,27.10
2023-04-08T21:47:59.302Z,24.93
2023-04-08T21:50:25.852Z,25.37
2023-04-08T21:52:52.390Z,25.13
2023-04-08T21:55:18.899Z,26.80
2023-04-08T21:57:45.411Z,28.73
2023-04-08T22:00:13.669Z,29.97
2023-04-08T22:02:43.847Z,30.83
2023-04-08T22:05:10.849Z,35.93
2023-04-08T22:07:37.855Z,40.17
2023-04-08T22:10:04.522Z,51.97
2023-04-08T22:12:31.057Z,45.53
2023-04-08T22:14:57.667Z,43.40
2023-04-08T22:17:24.364Z,38.57
2023-04-08T22:19:51.076Z,37.53
2023-04-08T22:22:17.636Z,36.53
2023-04-08T22:24:44.201Z,35.67
2023-04-08T22:27:10.944Z,43.07
2023-04-08T22:29:37.453Z,55.80
2023-04-08T22:32:04.024Z,56.30
2023-04-08T22:34:30.782Z,36.63
2023-04-08T22:36:57.335Z,31.90
2023-04-08T22:39:26.115Z,29.27
2023-04-08T22:41:52.684Z,26.97
2023-04-08T22:44:19.209Z,27.17
2023-04-08T22:46:45.997Z,29.17
2023-04-08T22:49:12.509Z,28.97
2023-04-08T22:51:39.110Z,27.70
2023-04-08T22:54:05.682Z,27.10
2023-04-08T22:56:32.302Z,25.27
2023-04-08T22:58:58.854Z,25.93
2023-04-08T23:01:25.435Z,24.13
2023-04-08T23:03:52.021Z,24.67
2023-04-08T23:06:18.611Z,25.33
2023-04-08T23:08:45.238Z,25.73
2023-04-08T23:11:11.784Z,23.67
2023-04-08T23:13:38.371Z,23.30
2023-04-08T23:16:04.998Z,24.37
2023-04-08T23:18:31.591Z,23.37
2023-04-08T23:20:58.578Z,23.97
2023-04-08T23:23:25.416Z,25.10
2023-04-08T23:25:54.314Z,25.53
2023-04-08T23:28:21.964Z,25.33
2023-04-08T23:30:48.617Z,24.03
2023-04-08T23:33:15.352Z,23.13
2023-04-08T23:35:42.241Z,26.23
2023-04-08T23:38:08.834Z,25.67
2023-04-08T23:40:35.465Z,25.43
2023-04-08T23:43:01.969Z,24.47
2023-04-08T23:45:28.486Z,25.40
2023-04-08T23:47:55.024Z,25.47
2023-04-08T23:50:23.067Z,24.70
2023-04-08T23:52:49.686Z,24.27
2023-04-08T23:55:16.218Z,25.07
2023-04-08T23:57:45.756Z,28.37
